createdAt,value
2023-03-08T00:00:56.849Z,98744.63
2023-03-08T00:03:24.998Z,98747.47
2023-03-08T00:05:53.219Z,98741.56
2023-03-08T00:08:21.208Z,98742.69
2023-03-08T00:10:49.274Z,98746.16
2023-03-08T00:13:17.403Z,98743.78
2023-03-08T00:15:46.633Z,98737.75
2023-03-08T00:18:14.473Z,98688.63
2023-03-08T00:20:42.331Z,98723.28
2023-03-08T00:23:11.805Z,98735.84
2023-03-08T00:25:39.754Z,98756.75
2023-03-08T00:28:07.701Z,98754.78
2023-03-08T00:30:35.506Z,98753.38
2023-03-08T00:33:05.022Z,98761.94
2023-03-08T00:35:32.891Z,98762.97
2023-03-08T00:38:00.755Z,98769.94
2023-03-08T00:40:28.661Z,98739.44
2023-03-08T00:42:58.031Z,98755.00
2023-03-08T00:45:26.243Z,98765.00
2023-03-08T00:47:54.123Z,98761.09
2023-03-08T00:50:23.488Z,98761.59
2023-03-08T00:52:51.533Z,98764.53
2023-03-08T00:55:19.421Z,98643.44
2023-03-08T00:57:48.292Z,98761.84
2023-03-08T01:00:17.657Z,98763.66
2023-03-08T01:02:45.470Z,98762.88
2023-03-08T01:05:13.732Z,98756.88
2023-03-08T01:07:42.903Z,98720.38
2023-03-08T01:10:12.303Z,98744.75
2023-03-08T01:12:40.907Z,98756.56
2023-03-08T01:15:10.078Z,98755.75
2023-03-08T01:17:37.994Z,98697.22
2023-03-08T01:20:07.198Z,98753.59
2023-03-08T01:22:35.174Z,98750.16
2023-03-08T01:25:04.658Z,98753.16
2023-03-08T01:27:32.828Z,98748.28
2023-03-08T01:30:01.017Z,98743.13
2023-03-08T01:32:29.150Z,98716.22
2023-03-08T01:35:01.986Z,98735.25
2023-03-08T01:37:29.880Z,98733.34
2023-03-08T01:39:58.055Z,98729.19
2023-03-08T01:42:27.818Z,98742.44
2023-03-08T01:44:57.670Z,98734.31
2023-03-08T01:47:27.970Z,98739.16
2023-03-08T01:50:15.366Z,98731.78
2023-03-08T01:52:47.752Z,98729.41
2023-03-08T01:55:18.216Z,98654.31
2023-03-08T01:57:49.346Z,98733.66
2023-03-08T02:00:22.854Z,98704.44
2023-03-08T02:02:55.512Z,98729.25
2023-03-08T02:05:24.579Z,98725.94
2023-03-08T02:07:57.146Z,98718.81
2023-03-08T02:10:29.281Z,98721.50
2023-03-08T02:12:58.609Z,98714.53
2023-03-08T02:15:26.653Z,98730.28
2023-03-08T02:17:58.028Z,98739.56
2023-03-08T02:20:30.104Z,98731.34
2023-03-08T02:23:10.016Z,98727.53
2023-03-08T02:25:37.952Z,98731.78
2023-03-08T02:28:07.056Z,98719.69
2023-03-08T02:30:37.265Z,98724.88
2023-03-08T02:33:05.083Z,98721.22
2023-03-08T02:35:32.954Z,98724.78
2023-03-08T02:38:00.887Z,98714.06
2023-03-08T02:40:30.090Z,98682.28
2023-03-08T02:42:57.946Z,98722.69
2023-03-08T02:45:25.813Z,98719.84
2023-03-08T02:47:53.993Z,98702.66
2023-03-08T02:50:22.153Z,98703.66
2023-03-08T02:52:50.029Z,98634.91
2023-03-08T02:55:17.960Z,98722.13
2023-03-08T02:57:47.222Z,98709.91
2023-03-08T03:00:17.512Z,98708.84
2023-03-08T03:02:45.516Z,98709.06
2023-03-08T03:05:13.894Z,98671.00
2023-03-08T03:07:44.941Z,98678.69
2023-03-08T03:10:18.126Z,98704.94
2023-03-08T03:12:47.399Z,98580.06
2023-03-08T03:15:19.638Z,98704.66
2023-03-08T03:17:51.406Z,98687.66
2023-03-08T03:20:19.844Z,98699.03
2023-03-08T03:22:48.108Z,98699.84
2023-03-08T03:25:16.869Z,98678.97
2023-03-08T03:27:48.155Z,98697.03
2023-03-08T03:30:18.579Z,98697.13
2023-03-08T03:32:47.197Z,98700.75
2023-03-08T03:35:19.335Z,98651.72
2023-03-08T03:37:47.265Z,98702.66
2023-03-08T03:40:15.813Z,98697.38
2023-03-08T03:42:50.090Z,98633.50
2023-03-08T03:45:19.280Z,98677.53
2023-03-08T03:47:48.046Z,98699.16
2023-03-08T03:50:16.594Z,98677.44
2023-03-08T03:52:59.029Z,98693.97
2023-03-08T03:55:27.547Z,98698.31
2023-03-08T03:57:57.466Z,98705.53
2023-03-08T04:00:25.369Z,98703.78
2023-03-08T04:03:05.343Z,98713.47
2023-03-08T04:05:36.143Z,98712.63
2023-03-08T04:08:04.519Z,98694.56
2023-03-08T04:10:36.177Z,98712.09
2023-03-08T04:13:05.492Z,98715.72
2023-03-08T04:15:33.715Z,98708.59
2023-03-08T04:18:05.883Z,98705.03
2023-03-08T04:20:35.819Z,98700.97
2023-03-08T04:23:05.280Z,98694.44
2023-03-08T04:25:39.547Z,98674.59
2023-03-08T04:28:11.623Z,98686.13
2023-03-08T04:30:40.119Z,98687.91
2023-03-08T04:33:09.297Z,98690.72
2023-03-08T04:35:45.350Z,98697.78
2023-03-08T04:38:14.719Z,98684.69
2023-03-08T04:43:45.438Z,98683.16
2023-03-08T04:46:14.944Z,98684.53
2023-03-08T04:48:43.251Z,98681.59
2023-03-08T04:51:14.851Z,98698.91
2023-03-08T04:53:45.285Z,98691.94
2023-03-08T04:56:15.707Z,98686.84
2023-03-08T04:58:46.007Z,98641.47
2023-03-08T05:01:17.405Z,98650.38
2023-03-08T05:03:46.240Z,98674.44
2023-03-08T05:06:15.106Z,98684.22
2023-03-08T05:08:43.470Z,98668.44
2023-03-08T05:11:17.370Z,98609.47
2023-03-08T05:13:47.031Z,98671.06
2023-03-08T05:16:15.389Z,98665.31
2023-03-08T05:18:43.524Z,98661.00
2023-03-08T05:21:13.907Z,98649.50
2023-03-08T05:23:43.621Z,98653.63
2023-03-08T05:26:14.953Z,98654.28
2023-03-08T05:28:43.276Z,98642.16
2023-03-08T05:31:15.449Z,98659.34
2023-03-08T05:33:46.323Z,98619.41
2023-03-08T05:36:17.389Z,98655.88
2023-03-08T05:38:46.526Z,98647.03
2023-03-08T05:41:16.519Z,98661.06
2023-03-08T05:43:48.675Z,98654.94
2023-03-08T05:46:20.679Z,98604.63
2023-03-08T05:48:50.150Z,98650.50
2023-03-08T05:51:20.420Z,98634.81
2023-03-08T05:53:48.964Z,98637.50
2023-03-08T05:56:20.276Z,98641.81
2023-03-08T05:58:55.297Z,98641.72
2023-03-08T06:01:28.336Z,98627.72
2023-03-08T06:04:02.543Z,98626.69
2023-03-08T06:06:35.004Z,98623.06
2023-03-08T06:09:05.487Z,98610.88
2023-03-08T06:11:35.844Z,98623.38
2023-03-08T06:14:05.082Z,98621.56
2023-03-08T06:16:36.516Z,98618.31
2023-03-08T06:19:04.944Z,98559.47
2023-03-08T06:21:34.375Z,98615.28
2023-03-08T06:24:04.748Z,98575.34
2023-03-08T06:26:33.276Z,98607.38
2023-03-08T06:29:01.807Z,98597.84
2023-03-08T06:31:31.749Z,98573.66
2023-03-08T06:34:02.148Z,98600.41
2023-03-08T06:36:30.599Z,98601.25
2023-03-08T06:39:00.991Z,98582.91
2023-03-08T06:41:29.619Z,98439.97
2023-03-08T06:44:00.291Z,98590.31
2023-03-08T06:46:28.674Z,98582.38
2023-03-08T06:48:56.605Z,98574.91
2023-03-08T06:51:26.741Z,98589.22
2023-03-08T06:53:55.086Z,98558.69
2023-03-08T06:56:28.265Z,98591.69
2023-03-08T06:58:56.138Z,98588.16
2023-03-08T07:01:24.118Z,98567.66
2023-03-08T07:03:52.847Z,98524.84
2023-03-08T07:06:20.696Z,98583.56
2023-03-08T07:08:49.969Z,98584.63
2023-03-08T07:11:17.772Z,98583.34
2023-03-08T07:13:45.659Z,98573.09
2023-03-08T07:16:14.621Z,98581.09
2023-03-08T07:18:42.937Z,98570.72
2023-03-08T07:21:11.366Z,98573.25
2023-03-08T07:23:39.217Z,98574.16
2023-03-08T07:26:09.517Z,98571.53
2023-03-08T07:28:37.984Z,98530.41
2023-03-08T07:31:06.170Z,98380.72
2023-03-08T07:33:34.889Z,98569.09
2023-03-08T07:36:03.131Z,98528.31
2023-03-08T07:38:31.243Z,98552.84
2023-03-08T07:40:59.326Z,98545.91
2023-03-08T07:43:28.770Z,98548.31
2023-03-08T07:46:03.711Z,98531.16
2023-03-08T07:48:31.640Z,98545.59
2023-03-08T07:51:05.529Z,98498.03
2023-03-08T07:53:34.637Z,98525.84
2023-03-08T07:56:02.716Z,98515.56
2023-03-08T07:58:32.104Z,98490.75
2023-03-08T08:00:59.989Z,98496.38
2023-03-08T08:03:27.832Z,98485.69
2023-03-08T08:05:55.763Z,98537.59
2023-03-08T08:08:23.608Z,98532.91
2023-03-08T08:10:51.565Z,98537.78
2023-03-08T08:13:19.412Z,98540.47
2023-03-08T08:15:48.897Z,98514.59
2023-03-08T08:18:16.756Z,98533.25
2023-03-08T08:20:44.682Z,98474.91
2023-03-08T08:23:12.464Z,98521.19
2023-03-08T08:25:40.847Z,98453.69
2023-03-08T08:28:09.000Z,98519.09
2023-03-08T08:30:36.937Z,98522.25
2023-03-08T08:33:06.334Z,98463.97
2023-03-08T08:35:42.993Z,98514.59
2023-03-08T08:38:11.398Z,98520.50
2023-03-08T08:40:39.238Z,98516.91
2023-03-08T08:43:07.232Z,98485.13
2023-03-08T08:45:35.081Z,98497.06
2023-03-08T08:48:02.975Z,98513.09
2023-03-08T08:50:32.237Z,98509.53
2023-03-08T08:53:00.168Z,98502.63
2023-03-08T08:55:28.205Z,98472.84
2023-03-08T08:57:56.149Z,98457.63
2023-03-08T09:00:24.254Z,98489.75
2023-03-08T09:02:52.410Z,98483.22
2023-03-08T09:05:20.358Z,98496.56
2023-03-08T09:07:49.668Z,98493.88
2023-03-08T09:10:18.074Z,98489.97
2023-03-08T09:12:46.024Z,98483.31
2023-03-08T09:15:14.471Z,98481.81
2023-03-08T09:17:42.395Z,98466.84
2023-03-08T09:20:11.888Z,98432.66
2023-03-08T09:22:40.401Z,98460.09
2023-03-08T09:25:12.026Z,98452.22
2023-03-08T09:27:41.348Z,98380.78
2023-03-08T09:30:16.905Z,98452.94
2023-03-08T09:32:44.834Z,98457.78
2023-03-08T09:35:14.851Z,98378.78
2023-03-08T09:37:42.688Z,98401.66
2023-03-08T09:40:21.219Z,98440.78
2023-03-08T09:42:49.299Z,98392.00
2023-03-08T09:45:25.277Z,98409.84
2023-03-08T09:48:00.266Z,98424.59
2023-03-08T09:50:43.669Z,98418.09
2023-03-08T09:53:22.469Z,98428.78
2023-03-08T09:55:56.651Z,98418.72
2023-03-08T09:58:33.516Z,98370.81
2023-03-08T10:01:07.629Z,98407.22
2023-03-08T10:03:50.830Z,98403.66
2023-03-08T10:06:24.031Z,98377.94
2023-03-08T10:08:57.824Z,98344.25
2023-03-08T10:11:34.454Z,98387.91
2023-03-08T10:14:10.406Z,98387.38
2023-03-08T10:16:41.978Z,98369.06
2023-03-08T10:19:17.557Z,98375.19
2023-03-08T10:21:46.258Z,98366.16
2023-03-08T10:24:18.631Z,98350.41
2023-03-08T10:26:48.062Z,98332.97
2023-03-08T10:29:15.944Z,98329.53
2023-03-08T10:31:47.060Z,98321.19
2023-03-08T10:34:16.782Z,98370.84
2023-03-08T10:36:53.218Z,98344.66
2023-03-08T10:39:22.223Z,98364.44
2023-03-08T10:41:55.911Z,98371.09
2023-03-08T10:44:36.833Z,98356.06
2023-03-08T10:47:18.277Z,98378.41
2023-03-08T10:49:47.498Z,98372.34
2023-03-08T10:52:28.316Z,98368.41
2023-03-08T10:55:03.452Z,98367.66
2023-03-08T10:57:34.369Z,98367.59
2023-03-08T11:00:22.633Z,98369.56
2023-03-08T11:02:50.811Z,98376.22
2023-03-08T11:05:22.050Z,98374.63
2023-03-08T11:07:54.277Z,98367.94
2023-03-08T11:10:24.549Z,98369.19
2023-03-08T11:13:02.719Z,98348.50
2023-03-08T11:15:32.779Z,98365.09
2023-03-08T11:18:12.370Z,98362.72
2023-03-08T11:20:45.432Z,98356.78
2023-03-08T11:23:22.394Z,98344.59
2023-03-08T11:26:01.056Z,98325.53
2023-03-08T11:28:52.981Z,98343.25
2023-03-08T11:31:32.378Z,98312.22
2023-03-08T11:34:29.232Z,98308.97
2023-03-08T11:37:04.013Z,98334.31
2023-03-08T11:39:34.375Z,98318.47
2023-03-08T11:42:14.290Z,98329.69
2023-03-08T11:44:57.433Z,98336.31
2023-03-08T11:47:53.542Z,98337.56
2023-03-08T11:50:24.436Z,98344.44
2023-03-08T11:53:04.271Z,98335.75
2023-03-08T11:55:46.453Z,98325.31
2023-03-08T11:58:22.524Z,98331.28
2023-03-08T12:00:57.319Z,98324.03
2023-03-08T12:03:31.008Z,98309.38
2023-03-08T12:06:02.669Z,98319.19
2023-03-08T12:08:36.906Z,98301.50
2023-03-08T12:11:09.436Z,98286.09
2023-03-08T12:13:41.831Z,98281.63
2023-03-08T12:16:16.838Z,98279.53
2023-03-08T12:18:48.203Z,98284.00
2023-03-08T12:21:27.249Z,98263.75
2023-03-08T12:24:04.021Z,98308.88
2023-03-08T12:26:38.657Z,98305.75
2023-03-08T12:29:15.047Z,98180.59
2023-03-08T12:31:47.072Z,98308.59
2023-03-08T12:34:27.210Z,98230.44
2023-03-08T12:36:55.323Z,98284.72
2023-03-08T12:39:30.197Z,98273.78
2023-03-08T12:42:01.024Z,98248.34
2023-03-08T12:44:31.206Z,98149.16
2023-03-08T12:47:04.337Z,98284.59
2023-03-08T12:49:35.751Z,98284.22
2023-03-08T12:52:06.722Z,98275.22
2023-03-08T12:54:36.675Z,98281.28
2023-03-08T12:57:15.879Z,98242.78
2023-03-08T12:59:43.815Z,98275.31
2023-03-08T13:02:30.676Z,98284.69
2023-03-08T13:05:22.060Z,98272.91
2023-03-08T13:08:05.524Z,98276.13
2023-03-08T13:10:35.886Z,98024.41
2023-03-08T13:13:37.444Z,98251.25
2023-03-08T13:16:19.441Z,98249.53
2023-03-08T13:18:53.930Z,98246.53
2023-03-08T13:21:34.433Z,98243.44
2023-03-08T13:24:10.380Z,98233.75
2023-03-08T13:26:58.284Z,98235.63
2023-03-08T13:29:31.583Z,98234.50
2023-03-08T13:32:00.043Z,98248.25
2023-03-08T13:34:31.275Z,98242.56
2023-03-08T13:37:00.119Z,98240.84
2023-03-08T13:39:30.038Z,98236.25
2023-03-08T13:42:07.744Z,98234.88
2023-03-08T13:44:35.621Z,98233.66
2023-03-08T13:47:15.573Z,98219.31
2023-03-08T13:49:46.655Z,98237.69
2023-03-08T13:52:18.629Z,98217.97
2023-03-08T13:54:50.174Z,98235.56
2023-03-08T13:57:23.006Z,98244.47
2023-03-08T13:59:52.917Z,98140.81
2023-03-08T14:02:23.606Z,97997.91
2023-03-08T14:04:53.735Z,98192.38
2023-03-08T14:07:23.050Z,98230.84
2023-03-08T14:09:51.624Z,98234.56
2023-03-08T14:12:21.711Z,98105.59
2023-03-08T14:14:52.633Z,98234.59
2023-03-08T14:17:22.966Z,98218.88
2023-03-08T14:19:56.829Z,98230.03
2023-03-08T14:22:38.796Z,98186.91
2023-03-08T14:25:21.333Z,97973.84
2023-03-08T14:27:49.324Z,98205.66
2023-03-08T14:30:19.021Z,98203.50
2023-03-08T14:33:03.666Z,98194.16
2023-03-08T14:35:35.395Z,98189.22
2023-03-08T14:38:03.945Z,98059.06
2023-03-08T14:40:35.404Z,98190.88
2023-03-08T14:43:06.303Z,98174.34
2023-03-08T14:45:36.933Z,98170.91
2023-03-08T14:48:23.959Z,98146.56
2023-03-08T14:50:55.648Z,98168.16
2023-03-08T14:53:30.837Z,98140.09
2023-03-08T14:55:59.895Z,98163.88
2023-03-08T14:58:31.089Z,98163.44
2023-03-08T15:01:01.539Z,98151.81
2023-03-08T15:03:30.431Z,98161.00
2023-03-08T15:06:02.624Z,98161.03
2023-03-08T15:08:30.615Z,98115.97
2023-03-08T15:10:58.518Z,98155.22
2023-03-08T15:13:26.407Z,98146.13
2023-03-08T15:15:54.345Z,98143.81
2023-03-08T15:18:22.331Z,98142.09
2023-03-08T15:20:51.420Z,98130.63
2023-03-08T15:23:22.913Z,98121.53
2023-03-08T15:25:51.218Z,98074.19
2023-03-08T15:28:21.446Z,98059.91
2023-03-08T15:30:49.624Z,98098.31
2023-03-08T15:33:17.605Z,98091.53
2023-03-08T15:35:46.320Z,98099.72
2023-03-08T15:38:14.882Z,98071.69
2023-03-08T15:40:44.740Z,98089.28
2023-03-08T15:43:12.899Z,98094.09
2023-03-08T15:45:41.212Z,98031.59
2023-03-08T15:48:14.710Z,98119.78
2023-03-08T15:50:44.149Z,98109.09
2023-03-08T15:53:20.592Z,98140.38
2023-03-08T15:55:58.500Z,98130.09
2023-03-08T15:58:26.934Z,98122.06
2023-03-08T16:00:55.891Z,98134.63
2023-03-08T16:03:26.248Z,98096.94
2023-03-08T16:05:54.467Z,98146.22
2023-03-08T16:08:25.136Z,98151.03
2023-03-08T16:10:55.292Z,98147.78
2023-03-08T16:13:23.510Z,98146.53
2023-03-08T16:15:52.227Z,98138.97
2023-03-08T16:18:20.394Z,98131.19
2023-03-08T16:20:48.737Z,98137.72
2023-03-08T16:23:16.816Z,98137.00
2023-03-08T16:25:46.582Z,98125.66
2023-03-08T16:28:15.760Z,98135.66
2023-03-08T16:30:43.670Z,98138.81
2023-03-08T16:33:11.602Z,98136.63
2023-03-08T16:35:39.550Z,98131.53
2023-03-08T16:38:07.663Z,98053.53
2023-03-08T16:40:35.567Z,98141.09
2023-03-08T16:43:03.496Z,98119.81
2023-03-08T16:45:32.768Z,98132.03
2023-03-08T16:48:00.681Z,98103.69
2023-03-08T16:50:28.662Z,98137.41
2023-03-08T16:52:56.796Z,98136.00
2023-03-08T16:55:25.613Z,98149.22
2023-03-08T16:57:53.530Z,98111.25
2023-03-08T17:00:22.228Z,98144.66
2023-03-08T17:02:51.595Z,98085.47
2023-03-08T17:05:19.462Z,98146.13
2023-03-08T17:07:47.748Z,98104.75
2023-03-08T17:10:15.744Z,98010.88
2023-03-08T17:12:43.592Z,98072.00
2023-03-08T17:15:12.661Z,98147.25
2023-03-08T17:17:40.969Z,98143.22
2023-03-08T17:20:13.912Z,98131.31
2023-03-08T17:22:42.706Z,98148.69
2023-03-08T17:25:10.768Z,98137.44
2023-03-08T17:27:38.665Z,98140.22
2023-03-08T17:30:07.678Z,98110.41
2023-03-08T17:32:35.816Z,98149.13
2023-03-08T17:35:03.861Z,98121.00
2023-03-08T17:37:33.095Z,98145.81
2023-03-08T17:40:01.010Z,98142.06
2023-03-08T17:42:28.810Z,98130.53
2023-03-08T17:44:56.739Z,98100.13
2023-03-08T17:47:24.866Z,98131.44
2023-03-08T17:49:52.720Z,98139.72
2023-03-08T17:52:20.620Z,98134.41
2023-03-08T17:54:50.438Z,98137.84
2023-03-08T17:57:18.699Z,98094.78
2023-03-08T17:59:48.018Z,98128.59
2023-03-08T18:02:16.574Z,98136.78
2023-03-08T18:04:45.352Z,98146.56
2023-03-08T18:07:14.433Z,98139.41
2023-03-08T18:09:42.281Z,98053.72
2023-03-08T18:12:11.742Z,98117.22
2023-03-08T18:14:40.334Z,98113.94
2023-03-08T18:17:08.795Z,98113.59
2023-03-08T18:19:36.845Z,98109.09
2023-03-08T18:22:05.629Z,98117.09
2023-03-08T18:24:33.994Z,98108.56
2023-03-08T18:27:05.332Z,98102.94
2023-03-08T18:29:35.415Z,98110.69
2023-03-08T18:32:03.742Z,98114.44
2023-03-08T18:34:31.765Z,98131.66
2023-03-08T18:37:00.131Z,98063.94
2023-03-08T18:39:28.330Z,98121.91
2023-03-08T18:41:57.081Z,98117.47
2023-03-08T18:44:25.140Z,98121.56
2023-03-08T18:46:54.418Z,98126.97
2023-03-08T18:49:22.281Z,98124.22
2023-03-08T18:51:50.328Z,98089.09
2023-03-08T18:54:20.526Z,98122.13
2023-03-08T18:56:49.845Z,98118.59
2023-03-08T18:59:17.865Z,98106.03
2023-03-08T19:01:45.933Z,98095.91
2023-03-08T19:04:15.487Z,98074.94
2023-03-08T19:06:43.914Z,98101.97
2023-03-08T19:09:13.335Z,98074.66
2023-03-08T19:11:41.718Z,98095.56
2023-03-08T19:14:11.356Z,98099.88
2023-03-08T19:16:39.559Z,98099.75
2023-03-08T19:19:09.852Z,98102.38
2023-03-08T19:21:41.618Z,98098.28
2023-03-08T19:24:10.163Z,98099.53
2023-03-08T19:26:40.504Z,98105.25
2023-03-08T19:29:11.530Z,98055.75
2023-03-08T19:31:42.853Z,98103.50
2023-03-08T19:34:13.096Z,98107.09
2023-03-08T19:36:42.614Z,98104.38
2023-03-08T19:39:12.169Z,98114.06
2023-03-08T19:41:40.121Z,98106.53
2023-03-08T19:44:08.626Z,97998.16
2023-03-08T19:46:39.226Z,98093.66
2023-03-08T19:49:09.303Z,98106.03
2023-03-08T19:51:38.800Z,98118.06
2023-03-08T19:54:08.670Z,98094.78
2023-03-08T19:56:36.940Z,98105.59
2023-03-08T19:59:04.988Z,98099.00
2023-03-08T20:01:33.229Z,98096.72
2023-03-08T20:04:01.164Z,98100.19
2023-03-08T20:06:32.131Z,98100.72
2023-03-08T20:09:01.622Z,98098.09
2023-03-08T20:11:30.966Z,98093.78
2023-03-08T20:13:58.971Z,98089.31
2023-03-08T20:16:28.207Z,98050.38
2023-03-08T20:18:57.432Z,98106.47
2023-03-08T20:21:27.885Z,98088.44
2023-03-08T20:23:56.594Z,98094.25
2023-03-08T20:26:25.622Z,98087.84
2023-03-08T20:28:56.213Z,98098.97
2023-03-08T20:31:25.186Z,98104.19
2023-03-08T20:33:53.650Z,98103.09
2023-03-08T20:36:22.041Z,98107.81
2023-03-08T20:38:49.802Z,98077.25
2023-03-08T20:41:19.635Z,98105.25
2023-03-08T20:43:49.426Z,98109.38
2023-03-08T20:46:20.445Z,98087.91
2023-03-08T20:48:48.566Z,98091.66
2023-03-08T20:51:18.471Z,98112.25
2023-03-08T20:53:48.711Z,98100.31
2023-03-08T20:56:18.713Z,98087.28
2023-03-08T20:58:47.354Z,98091.66
2023-03-08T21:01:17.445Z,98093.78
2023-03-08T21:03:47.705Z,98092.72
2023-03-08T21:06:18.746Z,98086.56
2023-03-08T21:08:47.338Z,98073.19
2023-03-08T21:11:15.372Z,98077.47
2023-03-08T21:13:43.366Z,98071.75
2023-03-08T21:16:15.704Z,98047.13
2023-03-08T21:18:45.777Z,98060.84
2023-03-08T21:21:27.204Z,98053.78
2023-03-08T21:23:56.160Z,98043.94
2023-03-08T21:26:25.711Z,98048.41
2023-03-08T21:28:53.826Z,98031.41
2023-03-08T21:31:21.916Z,98018.38
2023-03-08T21:33:50.313Z,98004.41
2023-03-08T21:36:18.432Z,98021.25
2023-03-08T21:38:52.408Z,98000.63
2023-03-08T21:41:21.511Z,98024.53
2023-03-08T21:43:49.486Z,98017.72
2023-03-08T21:46:18.211Z,97979.91
2023-03-08T21:48:46.553Z,98005.44
2023-03-08T21:51:15.311Z,98019.88
2023-03-08T21:53:43.739Z,98035.59
2023-03-08T21:56:15.008Z,98028.19
2023-03-08T21:58:43.223Z,97985.66
2023-03-08T22:01:19.627Z,98002.09
2023-03-08T22:03:47.547Z,98003.13
2023-03-08T22:06:15.428Z,98018.44
2023-03-08T22:08:43.355Z,98000.28
2023-03-08T22:11:12.556Z,97997.34
2023-03-08T22:13:40.697Z,97984.41
2023-03-08T22:16:09.155Z,98003.47
2023-03-08T22:18:36.960Z,97977.53
2023-03-08T22:21:04.917Z,97989.94
2023-03-08T22:23:32.974Z,97951.63
2023-03-08T22:26:00.828Z,97981.06
2023-03-08T22:28:30.101Z,97982.41
2023-03-08T22:30:57.925Z,97964.28
2023-03-08T22:33:25.683Z,97985.25
2023-03-08T22:35:53.572Z,97988.31
2023-03-08T22:38:21.396Z,97948.91
2023-03-08T22:40:49.437Z,97989.13
2023-03-08T22:43:18.052Z,97983.63
2023-03-08T22:45:47.347Z,97979.16
2023-03-08T22:48:15.209Z,97972.75
2023-03-08T22:50:43.026Z,97982.47
2023-03-08T22:53:10.864Z,97834.41
2023-03-08T22:55:38.691Z,97984.66
2023-03-08T22:58:06.466Z,97921.50
2023-03-08T23:00:34.269Z,97978.47
2023-03-08T23:03:03.512Z,97981.00
2023-03-08T23:05:31.388Z,97950.75
2023-03-08T23:07:59.514Z,97966.31
2023-03-08T23:10:27.380Z,97936.41
2023-03-08T23:12:55.316Z,97945.94
2023-03-08T23:15:23.183Z,97961.69
2023-03-08T23:17:51.283Z,97960.22
2023-03-08T23:20:22.333Z,97901.16
2023-03-08T23:22:51.497Z,97938.44
2023-03-08T23:25:19.509Z,97930.66
2023-03-08T23:27:47.429Z,97936.19
2023-03-08T23:30:16.808Z,97935.63
2023-03-08T23:32:44.726Z,97911.88
2023-03-08T23:35:13.567Z,97927.38
2023-03-08T23:37:42.729Z,97935.25
2023-03-08T23:40:14.136Z,97935.75
2023-03-08T23:42:42.497Z,97957.53
2023-03-08T23:45:11.179Z,97894.63
2023-03-08T23:47:39.011Z,97944.22
2023-03-08T23:50:07.982Z,97952.84
2023-03-08T23:52:35.908Z,97946.72
2023-03-08T23:55:05.645Z,97925.09
2023-03-08T23:57:33.865Z,97941.66
